Time;durP1;ratioP1;P1;durP2;ratioP2;P2;SDS_P1;SDS_P2;PMS_P1;PMS_P2;Temp;Humidity;BMP_temperature;BMP_pressure;BME280_temperature;BME280_humidity;BME280_pressure;Samples;Min_cycle;Max_cycle;Signal;HPM_P1;HPM_P2
2022/04/01 00:02:25;;;;;;;24.83;22.53;;;;;;;22.18;32.05;93454.75;6063739;28;103414;-62
2022/04/01 00:05:27;;;;;;;24.87;22.57;;;;;;;22.17;31.61;93465.72;6059186;28;103209;-62
2022/04/01 00:08:29;;;;;;;23.37;21.37;;;;;;;22.18;31.58;93448.63;6056325;28;103248;-62
2022/04/01 00:11:31;;;;;;;23.07;20.97;;;;;;;22.16;31.87;93445.53;6061339;28;103153;-62
2022/04/01 00:14:33;;;;;;;22.80;20.80;;;;;;;22.18;31.72;93448.63;6057487;28;103407;-63
2022/04/01 00:17:35;;;;;;;22.60;20.40;;;;;;;22.14;31.89;93435.22;6058367;28;103833;-61
2022/04/01 00:20:37;;;;;;;23.00;21.00;;;;;;;22.18;31.88;93428.09;6055933;28;103985;-62
2022/04/01 00:23:39;;;;;;;23.07;20.80;;;;;;;22.17;31.63;93431.09;6060332;28;104159;-63
2022/04/01 00:26:41;;;;;;;23.73;21.83;;;;;;;22.18;31.79;93427.31;6061227;28;103050;-62
2022/04/01 00:29:43;;;;;;;25.10;22.60;;;;;;;22.16;31.62;93418.88;6054777;28;103162;-63
2022/04/01 00:32:45;;;;;;;22.10;20.20;;;;;;;22.15;31.62;93434.09;6061632;28;102808;-62
2022/04/01 00:35:46;;;;;;;22.47;20.30;;;;;;;22.15;31.87;93439.41;6061448;28;103280;-62
2022/04/01 00:38:48;;;;;;;21.97;20.07;;;;;;;22.16;31.73;93432.19;6060779;28;103168;-61
2022/04/01 00:41:51;;;;;;;22.33;20.13;;;;;;;22.14;31.91;93437.09;6052973;28;103475;-62
2022/04/01 00:44:53;;;;;;;22.27;20.23;;;;;;;22.15;31.53;93425.34;6059337;28;104216;-62
2022/04/01 00:48:01;;;;;;;22.53;20.63;;;;;;;22.15;31.82;93433.31;6040031;28;104063;-62
2022/04/01 00:51:03;;;;;;;21.93;19.97;;;;;;;22.12;32.01;93437.47;6059316;28;102780;-62
2022/04/01 00:54:05;;;;;;;23.43;21.33;;;;;;;22.14;31.57;93429.88;6058543;28;103243;-62
2022/04/01 00:57:08;;;;;;;21.40;19.60;;;;;;;22.11;31.80;93426.03;6062809;28;103186;-62
2022/04/01 01:00:12;;;;;;;21.20;19.30;;;;;;;22.16;31.73;93440.97;6064940;28;104036;-63
2022/04/01 01:03:14;;;;;;;21.17;19.27;;;;;;;22.15;31.48;93441.31;6057599;28;103908;-62
2022/04/01 01:06:21;;;;;;;21.63;19.83;;;;;;;22.13;32.06;93448.88;6064450;28;103168;-62
2022/04/01 01:09:25;;;;;;;21.23;19.50;;;;;;;22.15;31.41;93449.31;6064381;28;104029;-62
2022/04/01 01:12:27;;;;;;;22.20;20.13;;;;;;;22.08;32.01;93440.03;6045453;28;103240;-63
2022/04/01 01:15:29;;;;;;;21.27;19.27;;;;;;;22.15;31.53;93430.66;6025829;28;104054;-62
2022/04/01 01:18:31;;;;;;;22.47;20.63;;;;;;;22.09;32.01;93433.59;6063358;28;103236;-61
2022/04/01 01:21:34;;;;;;;20.60;18.80;;;;;;;22.12;31.59;93442.78;6063087;28;103424;-63
2022/04/01 01:24:38;;;;;;;20.20;18.40;;;;;;;22.13;31.76;93454.97;6059165;28;103157;-62
2022/04/01 01:27:41;;;;;;;20.00;18.30;;;;;;;22.09;32.06;93454.13;6063689;28;103914;-62
2022/04/01 01:30:43;;;;;;;20.73;18.93;;;;;;;22.14;31.65;93445.09;6064180;28;102989;-62
2022/04/01 01:33:45;;;;;;;19.90;18.27;;;;;;;22.14;31.98;93447.75;6063088;28;103095;-62
2022/04/01 01:36:47;;;;;;;20.70;18.97;;;;;;;22.13;32.01;93462.19;6042238;28;105643;-61
2022/04/01 01:39:49;;;;;;;20.23;18.50;;;;;;;22.09;31.84;93430.94;6063498;28;104672;-63
2022/04/01 01:42:50;;;;;;;20.53;18.73;;;;;;;22.13;31.73;93440.88;6063793;28;103715;-62
2022/04/01 01:45:52;;;;;;;20.50;18.70;;;;;;;22.09;31.70;93443.47;6063532;28;103110;-63
2022/04/01 01:48:54;;;;;;;19.60;18.00;;;;;;;22.08;31.93;93436.59;6039363;28;103610;-62
2022/04/01 01:55:16;;;;;;;19.47;17.77;;;;;;;22.12;31.50;93429.47;6067158;28;103411;-62
2022/04/01 01:58:18;;;;;;;18.97;17.27;;;;;;;22.10;31.76;93410.38;6064330;28;104169;-62
2022/04/01 02:01:21;;;;;;;19.47;17.67;;;;;;;22.10;31.66;93413.06;6064150;28;104024;-62
2022/04/01 02:04:23;;;;;;;18.27;16.77;;;;;;;22.11;31.92;93411.94;6044672;28;103153;-62
2022/04/01 02:07:25;;;;;;;18.20;16.67;;;;;;;22.09;31.85;93438.91;6063503;28;103275;-62
2022/04/01 02:10:27;;;;;;;19.70;18.00;;;;;;;22.11;31.74;93414.59;6057797;28;104717;-62
2022/04/01 02:13:29;;;;;;;18.13;16.53;;;;;;;22.08;31.95;93413.41;6062373;28;103228;-61
2022/04/01 02:16:31;;;;;;;18.30;16.70;;;;;;;22.04;31.88;93409.88;6062790;28;103394;-63
2022/04/01 02:19:33;;;;;;;18.57;16.87;;;;;;;22.09;31.88;93401.63;6041162;28;103143;-63
2022/04/01 02:22:38;;;;;;;18.43;16.73;;;;;;;22.10;31.85;93368.53;6061047;28;104495;-62
2022/04/01 02:25:42;;;;;;;17.53;15.93;;;;;;;22.09;31.78;93371.56;6062395;28;104054;-63
2022/04/01 02:28:44;;;;;;;19.30;17.40;;;;;;;22.08;31.93;93373.44;6062576;28;104370;-61
2022/04/01 02:31:50;;;;;;;18.40;16.77;;;;;;;22.09;32.27;93363.56;6056312;28;104135;-61
2022/04/01 02:34:53;;;;;;;17.10;15.40;;;;;;;22.09;32.29;93375.00;6062919;28;103531;-61
2022/04/01 02:37:55;;;;;;;17.47;15.87;;;;;;;22.05;32.11;93355.50;6062452;28;103244;-62
2022/04/01 02:40:58;;;;;;;17.40;15.80;;;;;;;22.08;31.71;93354.78;6062159;28;103147;-61
2022/04/01 02:44:09;;;;;;;16.93;15.33;;;;;;;22.09;31.76;93369.66;6056692;28;103687;-62
2022/04/01 02:47:11;;;;;;;16.60;15.10;;;;;;;22.09;31.84;93348.34;6058001;28;103192;-62
2022/04/01 02:50:13;;;;;;;17.70;16.07;;;;;;;22.07;31.73;93329.28;6059232;28;103225;-62
2022/04/01 02:53:16;;;;;;;16.20;14.70;;;;;;;22.07;31.89;93326.63;6062513;28;104578;-62
2022/04/01 02:56:17;;;;;;;17.23;15.40;;;;;;;22.01;32.03;93312.03;6074671;28;103317;-61
2022/04/01 02:59:19;;;;;;;17.77;15.97;;;;;;;22.07;32.01;93317.84;6072257;28;103538;-62
2022/04/01 03:02:22;;;;;;;16.70;14.90;;;;;;;22.07;31.69;93331.94;6060020;28;103379;-62
2022/04/01 03:05:24;;;;;;;17.30;15.60;;;;;;;21.94;31.96;93306.53;6054861;28;102859;-64
2022/04/01 03:08:26;;;;;;;18.17;16.37;;;;;;;22.08;31.78;93327.38;6062491;28;103301;-65
2022/04/01 03:11:28;;;;;;;16.73;15.03;;;;;;;22.13;31.69;93331.66;6060765;28;104706;-65
2022/04/01 03:14:30;;;;;;;20.17;16.13;;;;;;;22.13;31.57;93319.13;6060304;28;103121;-67
2022/04/01 03:17:33;;;;;;;19.33;16.63;;;;;;;22.16;31.81;93322.97;6056956;28;105356;-64
2022/04/01 03:20:35;;;;;;;19.20;15.90;;;;;;;22.11;32.45;93300.06;6061231;28;103159;-64
2022/04/01 03:23:43;;;;;;;25.20;15.77;;;;;;;22.16;32.67;93299.75;6044507;28;104026;-61
2022/04/01 03:26:45;;;;;;;22.63;17.03;;;;;;;22.17;32.49;93308.53;6055917;28;103191;-63
2022/04/01 03:29:48;;;;;;;18.17;16.10;;;;;;;22.18;31.99;93331.38;6061786;28;103987;-62
2022/04/01 03:32:50;;;;;;;20.73;15.97;;;;;;;22.17;32.35;93327.94;6056689;28;103293;-61
2022/04/01 03:35:52;;;;;;;20.70;15.60;;;;;;;22.16;32.29;93291.00;6061886;28;103354;-60
2022/04/01 03:38:54;;;;;;;22.03;15.13;;;;;;;22.13;32.77;93326.34;6054769;28;103129;-68
2022/04/01 03:41:56;;;;;;;20.93;15.90;;;;;;;22.16;32.66;93307.00;6061354;28;105096;-67
2022/04/01 03:45:06;;;;;;;20.93;14.57;;;;;;;22.10;32.97;93306.50;6045042;28;104916;-65
2022/04/01 03:48:15;;;;;;;23.87;13.47;;;;;;;22.11;32.69;93310.72;6052115;28;103166;-63
2022/04/01 03:51:22;;;;;;;28.00;13.93;;;;;;;22.15;32.46;93289.47;6057402;28;103855;-64
2022/04/01 03:54:25;;;;;;;22.10;12.67;;;;;;;22.18;32.61;93302.09;6042829;28;103261;-65
2022/04/01 03:57:35;;;;;;;24.13;13.20;;;;;;;22.18;32.40;93305.53;6064130;28;103084;-64
2022/04/01 04:00:38;;;;;;;32.03;11.20;;;;;;;22.18;33.17;93334.84;6051368;28;103068;-65
2022/04/01 04:03:41;;;;;;;24.23;13.30;;;;;;;22.15;33.14;93294.78;6061371;28;103674;-65
2022/04/01 04:06:44;;;;;;;31.10;11.97;;;;;;;22.20;34.12;93302.53;6063870;28;103399;-65
2022/04/01 04:09:46;;;;;;;24.03;11.57;;;;;;;22.28;33.31;93317.53;6035999;28;103099;-65
2022/04/01 04:12:49;;;;;;;30.40;10.53;;;;;;;22.29;33.64;93305.75;6060599;28;103234;-64
2022/04/01 04:16:09;;;;;;;31.90;10.73;;;;;;;22.37;33.38;93310.13;6058927;28;103050;-63
2022/04/01 04:19:42;;;;;;;28.83;11.40;;;;;;;22.39;34.60;93294.56;6060932;28;103395;-63
2022/04/01 04:23:02;;;;;;;29.93;11.53;;;;;;;22.39;36.78;93284.66;6049599;28;103286;-66
2022/04/01 04:26:15;;;;;;;25.07;10.90;;;;;;;22.36;36.04;93305.91;6060282;28;103060;-66
2022/04/01 04:29:18;;;;;;;25.40;11.00;;;;;;;22.36;34.48;93300.59;6063456;28;103152;-66
2022/04/01 04:32:21;;;;;;;22.53;11.20;;;;;;;22.34;34.73;93311.56;6042832;28;104336;-66
2022/04/01 04:35:25;;;;;;;22.20;10.23;;;;;;;22.33;34.17;93296.69;6048428;28;103038;-66
2022/04/01 04:38:29;;;;;;;24.90;11.30;;;;;;;22.31;35.08;93325.59;6065533;28;103210;-67
2022/04/01 04:41:32;;;;;;;23.53;10.47;;;;;;;22.29;35.19;93306.53;6065267;28;102802;-66
2022/04/01 04:44:35;;;;;;;25.93;11.20;;;;;;;22.32;34.44;93310.38;6060655;28;103132;-67
2022/04/01 04:47:41;;;;;;;20.20;10.20;;;;;;;22.30;34.88;93301.97;6063506;28;103324;-68
2022/04/01 04:50:47;;;;;;;21.30;10.27;;;;;;;22.30;34.52;93309.97;6065695;28;104020;-66
2022/04/01 04:53:49;;;;;;;24.17;12.50;;;;;;;22.29;34.84;93301.19;6061255;28;103195;-65
2022/04/01 04:56:54;;;;;;;20.87;11.30;;;;;;;22.28;34.75;93304.22;6081269;28;103312;-65
2022/04/01 04:59:58;;;;;;;21.43;11.73;;;;;;;22.24;35.03;93320.13;6089559;28;105543;-65
2022/04/01 05:03:37;;;;;;;17.90;10.77;;;;;;;22.29;34.72;93303.09;6089095;28;103309;-67
2022/04/01 05:06:50;;;;;;;25.47;11.90;;;;;;;22.27;34.95;93297.34;6019845;28;103129;-66
2022/04/01 05:10:16;;;;;;;21.87;11.10;;;;;;;22.29;34.42;93300.44;6071857;28;103816;-65
2022/04/01 05:13:29;;;;;;;26.20;11.07;;;;;;;22.26;34.80;93312.56;6089871;28;103588;-67
2022/04/01 05:16:57;;;;;;;22.63;12.40;;;;;;;22.30;34.80;93275.31;6066498;28;104141;-66
2022/04/01 05:20:01;;;;;;;22.67;11.73;;;;;;;22.26;34.43;93261.94;6088069;28;103029;-66
2022/04/01 05:23:12;;;;;;;19.17;11.00;;;;;;;22.29;34.63;93277.22;6087794;28;103115;-66
2022/04/01 05:26:20;;;;;;;19.93;11.30;;;;;;;22.30;34.88;93288.66;6088863;28;103393;-66
2022/04/01 05:29:31;;;;;;;18.37;10.93;;;;;;;22.31;34.57;93290.19;6083043;28;103996;-69
2022/04/01 05:32:38;;;;;;;22.40;11.40;;;;;;;22.32;34.79;93262.41;6090145;28;103070;-65
2022/04/01 05:35:43;;;;;;;24.57;11.73;;;;;;;22.31;34.29;93266.19;6088977;28;103410;-65
2022/04/01 05:38:46;;;;;;;16.57;10.80;;;;;;;22.35;34.40;93285.72;6082353;28;103180;-66
2022/04/01 05:41:50;;;;;;;20.83;11.77;;;;;;;22.37;33.86;93278.16;6071841;28;103190;-66
2022/04/01 05:44:52;;;;;;;16.83;10.50;;;;;;;22.38;34.66;93290.34;6088550;28;103909;-66
2022/04/01 05:47:55;;;;;;;18.77;12.07;;;;;;;22.39;34.35;93292.66;6070780;28;102878;-65
2022/04/01 05:50:57;;;;;;;20.50;11.67;;;;;;;22.37;34.28;93296.81;6064586;28;103331;-66
2022/04/01 05:54:05;;;;;;;19.57;11.60;;;;;;;22.42;34.52;93272.53;6088336;28;103577;-66
2022/04/01 05:57:10;;;;;;;21.23;11.63;;;;;;;22.42;34.89;93257.31;6052493;28;104916;-66
2022/04/01 06:00:13;;;;;;;17.70;11.43;;;;;;;22.45;34.67;93290.47;6059444;28;104542;-66
2022/04/01 06:03:59;;;;;;;17.13;11.17;;;;;;;22.50;34.91;93289.41;6047145;28;104052;-67
2022/04/01 06:07:25;;;;;;;17.63;11.53;;;;;;;22.55;34.69;93275.84;6044129;28;103244;-68
2022/04/01 06:10:38;;;;;;;15.63;11.30;;;;;;;22.51;34.49;93267.75;6063772;28;103220;-67
2022/04/01 06:13:47;;;;;;;18.07;11.80;;;;;;;22.63;34.38;93274.84;6041716;28;103802;-64
2022/04/01 06:17:05;;;;;;;20.60;16.80;;;;;;;22.65;34.20;93277.94;6063719;28;104184;-65
2022/04/01 06:20:08;;;;;;;17.47;13.50;;;;;;;22.68;34.49;93277.22;6063524;28;104161;-66
2022/04/01 06:23:18;;;;;;;22.40;15.63;;;;;;;22.69;34.68;93265.47;6056921;28;103187;-65
2022/04/01 06:26:21;;;;;;;22.20;16.03;;;;;;;22.75;34.82;93274.72;6063775;28;103609;-68
2022/04/01 06:29:37;;;;;;;22.13;16.10;;;;;;;22.77;34.83;93283.13;6063023;28;103206;-68
2022/04/01 06:32:48;;;;;;;20.23;16.80;;;;;;;22.81;34.88;93272.53;6063755;28;104619;-67
2022/04/01 06:35:49;;;;;;;23.73;17.27;;;;;;;22.83;34.72;93276.38;6058506;28;103633;-66
2022/04/01 06:39:23;;;;;;;20.80;17.90;;;;;;;22.87;34.19;93287.91;6063423;28;103917;-64
2022/04/01 06:42:30;;;;;;;23.03;18.70;;;;;;;22.92;34.51;93292.16;6063430;28;103170;-66
2022/04/01 06:45:31;;;;;;;24.00;18.80;;;;;;;22.95;34.15;93294.13;6058128;28;103005;-66
2022/04/01 06:48:40;;;;;;;20.77;18.50;;;;;;;22.97;34.10;93270.53;6063195;28;104119;-65
2022/04/01 06:51:42;;;;;;;24.37;20.70;;;;;;;23.01;34.11;93284.69;6062005;28;102893;-66
2022/04/01 06:54:46;;;;;;;24.87;19.17;;;;;;;23.00;34.10;93294.59;6043553;28;102919;-66
2022/04/01 06:57:48;;;;;;;22.60;19.43;;;;;;;23.03;34.21;93242.47;6060684;28;103022;-66
2022/04/01 07:00:50;;;;;;;25.70;19.07;;;;;;;23.10;33.92;93305.81;6062375;28;104475;-65
2022/04/01 07:03:53;;;;;;;24.10;20.10;;;;;;;23.08;33.73;93271.50;6062958;28;103170;-66
2022/04/01 07:06:59;;;;;;;24.07;19.50;;;;;;;23.14;34.03;93278.06;6057198;28;105286;-65
2022/04/01 07:10:02;;;;;;;24.97;20.30;;;;;;;23.17;33.81;93279.25;6062803;28;104018;-66
2022/04/01 07:13:04;;;;;;;23.27;20.50;;;;;;;23.20;33.51;93286.56;6062382;28;103463;-66
2022/04/01 07:16:06;;;;;;;23.47;20.40;;;;;;;23.23;33.42;93291.97;6063519;28;103310;-66
2022/04/01 07:19:08;;;;;;;23.73;20.17;;;;;;;23.25;33.80;93259.59;6056798;28;103041;-67
2022/04/01 07:22:10;;;;;;;22.03;19.80;;;;;;;23.28;33.69;93274.88;6061589;28;103214;-67
2022/04/01 07:25:12;;;;;;;23.03;19.23;;;;;;;23.27;33.75;93265.34;6044725;28;103764;-65
2022/04/01 07:28:14;;;;;;;21.00;17.90;;;;;;;23.33;33.08;93265.81;6056812;28;103332;-66
2022/04/01 07:34:55;;;;;;;24.50;19.60;;;;;;;23.30;33.00;93270.75;6062441;28;103055;-66
2022/04/01 07:37:57;;;;;;;21.93;19.40;;;;;;;23.30;33.23;93272.66;6062699;28;103153;-66
2022/04/01 07:40:59;;;;;;;24.00;19.03;;;;;;;23.36;32.98;93281.16;6056957;28;103066;-67
2022/04/01 07:44:02;;;;;;;23.50;20.67;;;;;;;23.40;33.02;93271.31;6062195;28;103124;-67
2022/04/01 07:47:09;;;;;;;19.53;17.40;;;;;;;23.35;33.48;93253.66;6062402;28;103258;-66
2022/04/01 07:50:12;;;;;;;21.40;18.63;;;;;;;23.35;33.31;93272.34;6056369;28;103338;-66
2022/04/01 07:53:16;;;;;;;24.47;19.00;;;;;;;23.39;32.99;93264.41;6062007;28;104013;-65
2022/04/01 07:56:18;;;;;;;25.40;17.87;;;;;;;23.40;32.78;93273.97;6073412;28;103197;-67
2022/04/01 07:59:21;;;;;;;23.43;18.40;;;;;;;23.40;33.22;93266.72;6085713;28;102977;-67
2022/04/01 08:02:22;;;;;;;21.80;18.03;;;;;;;23.42;33.02;93263.69;6079414;28;103114;-67
2022/04/01 08:05:24;;;;;;;25.00;19.37;;;;;;;23.39;32.89;93261.75;6085757;28;106182;-67
2022/04/01 08:08:26;;;;;;;25.30;18.90;;;;;;;23.47;32.90;93284.75;6068651;28;103963;-68
2022/04/01 08:11:29;;;;;;;22.37;18.73;;;;;;;23.49;32.87;93274.47;6085428;28;103039;-67
2022/04/01 08:14:30;;;;;;;21.30;18.60;;;;;;;23.45;33.04;93284.34;6079976;28;103319;-67
2022/04/01 08:17:33;;;;;;;20.67;18.57;;;;;;;23.35;32.99;93279.59;6084986;28;103544;-65
2022/04/01 08:20:35;;;;;;;20.50;18.37;;;;;;;23.28;32.91;93297.00;6085054;28;103453;-67
2022/04/01 08:23:37;;;;;;;25.10;18.00;;;;;;;23.26;33.33;93317.94;6079852;28;103014;-67
2022/04/01 08:26:39;;;;;;;22.37;19.90;;;;;;;23.23;33.04;93278.63;6084851;28;104244;-66
2022/04/01 08:29:41;;;;;;;23.63;20.73;;;;;;;23.28;33.14;93278.31;6085227;28;103101;-66
2022/04/01 08:32:43;;;;;;;22.57;20.00;;;;;;;23.36;32.69;93265.91;6085278;28;102912;-67
2022/04/01 08:35:45;;;;;;;28.50;21.67;;;;;;;23.28;33.04;93272.97;6079497;28;104034;-66
2022/04/01 08:38:47;;;;;;;32.70;26.47;;;;;;;23.17;32.79;93240.00;6085321;28;104118;-67
2022/04/01 08:41:49;;;;;;;28.10;25.30;;;;;;;23.24;32.76;93264.16;6067971;28;104139;-67
2022/04/01 08:44:51;;;;;;;30.07;26.93;;;;;;;23.31;32.53;93276.88;6067790;28;103420;-67
2022/04/01 08:47:55;;;;;;;34.40;30.17;;;;;;;23.29;32.84;93260.44;6081005;28;103028;-66
2022/04/01 08:50:57;;;;;;;29.87;26.67;;;;;;;23.24;32.76;93258.03;6084448;28;103395;-66
2022/04/01 08:53:59;;;;;;;29.60;26.50;;;;;;;23.21;32.93;93242.75;6084458;28;103255;-67
2022/04/01 08:57:01;;;;;;;32.93;29.30;;;;;;;23.20;32.90;93258.00;6060816;28;104126;-67
2022/04/01 09:00:13;;;;;;;30.13;27.10;;;;;;;23.18;32.99;93241.53;6061522;28;102819;-66
2022/04/01 09:03:17;;;;;;;34.37;30.60;;;;;;;23.20;32.72;93225.19;6043986;28;103392;-67
2022/04/01 09:06:19;;;;;;;35.23;31.07;;;;;;;23.25;32.91;93190.19;6061135;28;103929;-67
2022/04/01 09:09:24;;;;;;;33.57;30.27;;;;;;;23.24;32.67;93215.34;6056215;28;103291;-68
2022/04/01 09:12:28;;;;;;;32.27;29.17;;;;;;;23.27;32.52;93230.63;6062127;28;103579;-67
2022/04/01 09:15:41;;;;;;;33.67;30.27;;;;;;;23.27;32.57;93212.72;6047874;28;104387;-66
2022/04/01 09:18:44;;;;;;;35.03;31.37;;;;;;;23.29;32.87;93207.06;6043083;28;105103;-67
2022/04/01 09:21:49;;;;;;;34.43;30.73;;;;;;;23.33;32.95;93201.78;6064596;28;103066;-66
2022/04/01 09:25:15;;;;;;;33.37;29.93;;;;;;;23.19;32.92;93159.63;6064722;28;103205;-66
2022/04/01 09:28:25;;;;;;;34.60;30.50;;;;;;;23.33;32.60;93156.41;6064434;28;104349;-65
2022/04/01 09:31:32;;;;;;;32.20;28.30;;;;;;;23.37;32.72;93171.34;6059199;28;103218;-65
2022/04/01 09:34:41;;;;;;;32.47;28.60;;;;;;;23.41;32.75;93152.72;6048424;28;103185;-66
2022/04/01 09:38:01;;;;;;;32.30;29.00;;;;;;;23.39;32.49;93160.31;6064407;28;103786;-65
2022/04/01 09:41:05;;;;;;;35.07;31.60;;;;;;;23.44;32.41;93154.66;6058490;28;103217;-65
2022/04/01 09:44:15;;;;;;;36.70;31.53;;;;;;;23.45;32.61;93167.66;6064601;28;103025;-65
2022/04/01 09:47:19;;;;;;;34.30;30.57;;;;;;;23.47;32.89;93161.94;6065106;28;103103;-66
2022/04/01 09:50:36;;;;;;;34.63;30.90;;;;;;;23.42;32.66;93170.28;6065302;28;104270;-65
2022/04/01 09:53:51;;;;;;;32.40;28.37;;;;;;;23.36;32.72;93169.06;6058767;28;103040;-63
2022/04/01 09:57:18;;;;;;;34.60;29.00;;;;;;;23.40;32.76;93137.84;6083657;28;102695;-65
2022/04/01 10:00:19;;;;;;;30.17;27.13;;;;;;;23.48;32.91;93158.16;6087703;28;103238;-64
2022/04/01 10:03:21;;;;;;;28.87;25.87;;;;;;;23.45;33.30;93158.88;6081940;28;103279;-67
2022/04/01 10:06:23;;;;;;;31.13;25.50;;;;;;;23.53;32.76;93195.22;6087895;28;103157;-65
2022/04/01 10:09:34;;;;;;;30.80;23.67;;;;;;;23.54;32.86;93170.06;6088079;28;103387;-66
2022/04/01 10:13:06;;;;;;;30.40;23.30;;;;;;;23.53;32.77;93169.31;6073001;28;102949;-66
2022/04/01 10:16:09;;;;;;;33.17;23.90;;;;;;;23.54;32.35;93186.84;6085481;28;102957;-64
2022/04/01 10:19:32;;;;;;;32.43;21.70;;;;;;;23.57;31.93;93167.44;6073065;28;103087;-64
2022/04/01 10:22:37;;;;;;;28.40;19.13;;;;;;;23.56;31.99;93183.81;6088725;28;103292;-66
2022/04/01 10:25:51;;;;;;;31.60;19.37;;;;;;;23.57;31.85;93188.81;6082274;28;103040;-65
2022/04/01 10:28:53;;;;;;;29.10;17.87;;;;;;;23.57;32.19;93188.03;6089741;28;103070;-64
2022/04/01 10:32:25;;;;;;;29.37;18.00;;;;;;;23.53;31.75;93173.88;6088196;28;103196;-64
2022/04/01 10:35:30;;;;;;;28.30;16.50;;;;;;;23.59;31.88;93185.78;6082882;28;103154;-68
2022/04/01 10:38:33;;;;;;;35.37;17.27;;;;;;;23.57;31.46;93164.00;6070896;28;104021;-65
2022/04/01 10:41:35;;;;;;;26.13;15.60;;;;;;;23.57;31.68;93156.00;6087917;28;105744;-64
2022/04/01 10:44:53;;;;;;;31.53;16.90;;;;;;;23.60;31.80;93145.34;6089055;28;103296;-64
2022/04/01 10:51:37;;;;;;;30.50;15.07;;;;;;;23.59;31.24;93167.09;6089418;28;105404;-64
2022/04/01 10:54:44;;;;;;;28.20;13.60;;;;;;;23.57;31.28;93153.31;6070720;28;103040;-65
2022/04/01 10:57:47;;;;;;;21.30;13.60;;;;;;;23.56;31.42;93162.47;6035356;28;104300;-65
2022/04/01 11:00:52;;;;;;;27.03;13.20;;;;;;;23.59;31.50;93177.75;6039888;28;103189;-66
2022/04/01 11:04:12;;;;;;;26.70;12.43;;;;;;;23.53;31.44;93153.28;6039044;28;104069;-66
2022/04/01 11:07:23;;;;;;;25.40;13.23;;;;;;;23.50;31.37;93147.88;6039684;28;103085;-66
2022/04/01 11:10:25;;;;;;;26.47;12.23;;;;;;;23.48;30.97;93144.78;6033875;28;103102;-65
2022/04/01 11:13:29;;;;;;;22.40;12.40;;;;;;;23.49;30.94;93132.97;6039707;28;103445;-68
2022/04/01 11:16:52;;;;;;;25.33;13.00;;;;;;;23.45;31.27;93108.91;6039190;28;103057;-68
2022/04/01 11:20:12;;;;;;;22.60;11.93;;;;;;;23.48;31.03;93128.78;6034817;28;104158;-68
2022/04/01 11:23:14;;;;;;;18.70;12.27;;;;;;;23.52;31.40;93134.94;6039291;28;103198;-68
2022/04/01 11:26:16;;;;;;;26.00;13.00;;;;;;;23.49;31.33;93119.63;6039566;28;104028;-69
2022/04/01 11:29:21;;;;;;;21.63;11.70;;;;;;;23.47;30.99;93117.31;6039597;28;103264;-66
2022/04/01 11:32:23;;;;;;;23.67;12.40;;;;;;;23.48;31.09;93139.47;6034373;28;103731;-69
2022/04/01 11:35:30;;;;;;;23.37;11.67;;;;;;;23.49;31.27;93135.66;6038459;28;103135;-66
2022/04/01 11:38:32;;;;;;;20.57;11.10;;;;;;;23.45;31.38;93118.81;6022793;28;103982;-66
2022/04/01 11:41:51;;;;;;;22.60;12.40;;;;;;;23.43;31.53;93116.53;6033450;28;103055;-68
2022/04/01 11:44:56;;;;;;;20.27;12.70;;;;;;;23.45;30.94;93114.25;6039209;28;105782;-69
2022/04/01 11:47:58;;;;;;;20.50;11.40;;;;;;;23.40;31.48;93105.81;6039271;28;104011;-66
2022/04/01 11:51:04;;;;;;;20.33;10.77;;;;;;;23.43;30.98;93115.75;6038883;28;102780;-67
2022/04/01 11:54:09;;;;;;;20.77;12.50;;;;;;;23.39;31.33;93122.94;6032951;28;103309;-69
2022/04/01 11:57:11;;;;;;;17.13;11.50;;;;;;;23.35;31.64;93111.44;6060573;28;103133;-69
2022/04/01 12:00:14;;;;;;;20.33;11.33;;;;;;;23.38;31.19;93103.50;6086960;28;103352;-69
2022/04/01 12:03:20;;;;;;;17.60;11.63;;;;;;;23.29;31.24;93100.31;6067451;28;103522;-68
2022/04/01 12:09:42;;;;;;;17.00;11.70;;;;;;;23.35;31.61;93106.09;6086304;28;103674;-69
2022/04/01 12:13:02;;;;;;;13.40;10.77;;;;;;;23.33;31.50;93101.13;6068471;28;104425;-67
2022/04/01 12:16:04;;;;;;;14.97;10.70;;;;;;;23.30;31.33;93091.94;6080608;28;103392;-69
2022/04/01 12:19:06;;;;;;;17.13;11.70;;;;;;;23.22;31.17;93025.47;6085322;28;103173;-69
2022/04/01 12:22:09;;;;;;;17.80;11.37;;;;;;;23.28;31.39;93027.44;6067878;28;105790;-70
2022/04/01 12:25:11;;;;;;;17.77;10.93;;;;;;;23.28;31.53;93024.00;6084728;28;103859;-68
2022/04/01 12:28:14;;;;;;;16.47;10.70;;;;;;;23.22;31.52;93063.59;6079201;28;103108;-67
2022/04/01 12:31:23;;;;;;;16.80;11.43;;;;;;;23.25;31.70;93078.88;6085285;28;103376;-70
2022/04/01 12:34:26;;;;;;;17.33;10.63;;;;;;;23.27;31.71;93081.97;6085384;28;102808;-66
2022/04/01 12:37:28;;;;;;;14.13;10.03;;;;;;;23.29;31.50;93089.63;6079091;28;103772;-71
2022/04/01 12:40:44;;;;;;;14.53;10.43;;;;;;;23.26;31.46;93115.13;6085105;28;106272;-69
2022/04/01 12:43:49;;;;;;;13.20;10.27;;;;;;;23.26;31.82;93093.00;6085900;28;103161;-69
2022/04/01 12:46:51;;;;;;;14.07;10.80;;;;;;;23.27;31.58;93135.34;6067577;28;102948;-69
2022/04/01 12:49:53;;;;;;;17.43;10.23;;;;;;;23.25;31.77;93142.16;6083849;28;103125;-70
2022/04/01 12:53:08;;;;;;;12.30;10.87;;;;;;;23.19;31.23;93117.69;6089000;28;104256;-67
2022/04/01 12:56:34;;;;;;;12.73;9.90;;;;;;;23.21;31.54;93107.44;6060529;28;103079;-69
2022/04/01 12:59:39;;;;;;;16.27;10.03;;;;;;;23.20;31.16;93103.22;6043356;28;104469;-67
2022/04/01 13:02:44;;;;;;;17.10;10.70;;;;;;;23.20;31.37;93105.88;6065085;28;103066;-70
2022/04/01 13:06:12;;;;;;;12.60;10.27;;;;;;;23.19;31.41;93091.00;6064887;28;103103;-70
2022/04/01 13:09:14;;;;;;;15.77;9.70;;;;;;;23.17;31.59;93082.56;6063570;28;104321;-66
2022/04/01 13:12:18;;;;;;;13.53;9.93;;;;;;;23.19;31.14;93090.25;6059963;28;103243;-69
2022/04/01 13:15:24;;;;;;;15.33;9.83;;;;;;;23.17;31.98;93053.22;6064946;28;103697;-69
2022/04/01 13:18:27;;;;;;;13.23;9.73;;;;;;;23.16;31.27;93032.22;6065513;28;103461;-67
2022/04/01 13:21:29;;;;;;;15.90;9.60;;;;;;;23.11;31.50;93022.66;6041784;28;103211;-67
2022/04/01 13:24:36;;;;;;;18.30;10.10;;;;;;;23.12;31.93;93031.44;6067485;28;102989;-67
2022/04/01 13:27:38;;;;;;;19.93;8.07;;;;;;;23.10;31.47;93066.47;6079324;28;107080;-66
2022/04/01 13:30:40;;;;;;;15.43;8.50;;;;;;;23.06;31.55;93028.31;6087913;28;103091;-66
2022/04/01 13:33:43;;;;;;;21.87;8.00;;;;;;;22.88;31.73;93057.41;6083880;28;103271;-67
2022/04/01 13:36:45;;;;;;;24.37;7.50;;;;;;;22.75;31.30;93076.63;6088170;28;103018;-67
2022/04/01 13:39:47;;;;;;;26.03;8.23;;;;;;;22.77;30.95;93090.38;6088708;28;105379;-66
2022/04/01 13:42:51;;;;;;;24.67;7.40;;;;;;;22.90;31.53;93118.38;6049896;28;104031;-66
2022/04/01 13:45:52;;;;;;;23.27;8.80;;;;;;;22.92;31.50;93146.25;6059993;28;103274;-64
2022/04/01 13:48:55;;;;;;;31.60;10.80;;;;;;;23.00;31.86;93163.88;6063955;28;104020;-65
2022/04/01 13:51:57;;;;;;;22.10;12.80;;;;;;;23.00;31.65;93152.44;6063514;28;103033;-65
2022/04/01 13:55:00;;;;;;;21.67;11.73;;;;;;;23.00;31.84;93152.44;6059245;28;103753;-66
2022/04/01 13:58:01;;;;;;;24.20;13.80;;;;;;;23.01;32.18;93148.66;6064772;28;103160;-65
2022/04/01 14:01:04;;;;;;;18.83;11.30;;;;;;;23.00;32.42;93144.44;6063495;28;103890;-65
2022/04/01 14:04:12;;;;;;;25.03;11.00;;;;;;;22.98;32.19;93155.47;6065600;28;104300;-66
2022/04/01 14:07:14;;;;;;;27.80;11.23;;;;;;;22.99;32.41;93162.34;6058782;28;103712;-66
2022/04/01 14:10:16;;;;;;;23.67;9.80;;;;;;;22.99;32.89;93150.91;6063802;28;103607;-65
2022/04/01 14:13:20;;;;;;;32.80;10.63;;;;;;;22.97;32.43;93163.84;6062422;28;103427;-66
2022/04/01 14:16:43;;;;;;;23.50;9.20;;;;;;;22.98;33.25;93170.72;6045005;28;102824;-68
2022/04/01 14:19:45;;;;;;;23.60;8.50;;;;;;;22.98;32.98;93198.16;6088099;28;103050;-69